
<gpx xmlns="http://www.topografix.com/GPX/1/1" xmlns:gpxx="http://www.garmin.com/xmlschemas/GpxExtensions/v3" xmlns:xsi="http://www.w3.org/2001/XMLSchema-instance" version="1.1" creator="Adze - https://getadze.com/" xsi:schemaLocation="http://www.topografix.com/GPX/1/1 http://www.topografix.com/GPX/1/1/gpx.xsd http://www.garmin.com/xmlschemas/GpxExtensions/v3 http://www.garmin.com/xmlschemas/GpxExtensionsv3.xsd">
    <metadata>
        <name>Untitled Document</name>
        <link href="http://www.garmin.com"></link>
        <time>2018-03-08T07:19:01.149Z</time>
    </metadata>
    <wpt lon="101.053640" lat="14.443965">
        <ele>54.000000</ele>
        <name>Wansnit Resort</name>
        <cmt>21-MAY-10 15:10:32</cmt>
        <desc>21-MAY-10 15:10:32</desc>
        <sym>Lodging</sym>
        <extensions>
            <gpxx:WaypointExtension xmlns:gpxx="http://www.garmin.com/xmlschemas/GpxExtensions/v3">
                <gpxx:DisplayMode>SymbolOnly</gpxx:DisplayMode>
            </gpxx:WaypointExtension>
        </extensions>
    </wpt>
    <trk>
        <name>May 2010 - Sunday</name>
        <extensions>
            <gpxx:TrackExtension xmlns:gpxx="http://www.garmin.com/xmlschemas/GpxExtensions/v3">
                <gpxx:DisplayColor>Green</gpxx:DisplayColor>
            </gpxx:TrackExtension>
        </extensions>
        <trkseg>
            <trkpt lon="101.053707" lat="14.444081">
                <ele>70.794190</ele>
                <time>2010-05-23T02:39:36Z</time>
            </trkpt>
            <trkpt lon="101.054444" lat="14.443584">
                <ele>66.468262</ele>
                <time>2010-05-23T02:51:16Z</time>
            </trkpt>
            <trkpt lon="101.055279" lat="14.445007">
                <ele>57.816528</ele>
                <time>2010-05-23T02:52:02Z</time>
            </trkpt>
            <trkpt lon="101.054514" lat="14.445931">
                <ele>67.910278</ele>
                <time>2010-05-23T02:54:41Z</time>
            </trkpt>
            <trkpt lon="101.055096" lat="14.446047">
                <ele>63.103638</ele>
                <time>2010-05-23T02:58:08Z</time>
            </trkpt>
            <trkpt lon="101.055658" lat="14.446670">
                <ele>58.297119</ele>
                <time>2010-05-23T02:58:30Z</time>
            </trkpt>
            <trkpt lon="101.056061" lat="14.446540">
                <ele>59.739136</ele>
                <time>2010-05-23T02:58:41Z</time>
            </trkpt>
            <trkpt lon="101.056678" lat="14.446659">
                <ele>55.893799</ele>
                <time>2010-05-23T02:58:58Z</time>
            </trkpt>
            <trkpt lon="101.057372" lat="14.447917">
                <ele>54.932373</ele>
                <time>2010-05-23T02:59:32Z</time>
            </trkpt>
            <trkpt lon="101.057238" lat="14.448044">
                <ele>55.893799</ele>
                <time>2010-05-23T02:59:38Z</time>
            </trkpt>
            <trkpt lon="101.055098" lat="14.448386">
                <ele>54.451782</ele>
                <time>2010-05-23T03:00:23Z</time>
            </trkpt>
            <trkpt lon="101.054576" lat="14.448984">
                <ele>55.893799</ele>
                <time>2010-05-23T03:00:40Z</time>
            </trkpt>
            <trkpt lon="101.054034" lat="14.450835">
                <ele>54.932373</ele>
                <time>2010-05-23T03:01:19Z</time>
            </trkpt>
            <trkpt lon="101.053229" lat="14.451404">
                <ele>55.893799</ele>
                <time>2010-05-23T03:01:40Z</time>
            </trkpt>
            <trkpt lon="101.052953" lat="14.451320">
                <ele>55.413086</ele>
                <time>2010-05-23T03:01:46Z</time>
            </trkpt>
            <trkpt lon="101.050300" lat="14.449052">
                <ele>55.413086</ele>
                <time>2010-05-23T03:02:54Z</time>
            </trkpt>
            <trkpt lon="101.049965" lat="14.449193">
                <ele>54.451782</ele>
                <time>2010-05-23T03:03:02Z</time>
            </trkpt>
            <trkpt lon="101.047106" lat="14.453678">
                <ele>50.606567</ele>
                <time>2010-05-23T03:04:48Z</time>
            </trkpt>
            <trkpt lon="101.046134" lat="14.455680">
                <ele>47.241821</ele>
                <time>2010-05-23T03:05:21Z</time>
            </trkpt>
            <trkpt lon="101.038246" lat="14.459111">
                <ele>44.358032</ele>
                <time>2010-05-23T03:07:45Z</time>
            </trkpt>
            <trkpt lon="101.035001" lat="14.459727">
                <ele>41.954712</ele>
                <time>2010-05-23T03:08:36Z</time>
            </trkpt>
            <trkpt lon="101.034905" lat="14.459892">
                <ele>41.954712</ele>
                <time>2010-05-23T03:08:41Z</time>
            </trkpt>
            <trkpt lon="101.035040" lat="14.462337">
                <ele>38.590088</ele>
                <time>2010-05-23T03:09:21Z</time>
            </trkpt>
            <trkpt lon="101.035710" lat="14.465986">
                <ele>40.512817</ele>
                <time>2010-05-23T03:10:20Z</time>
            </trkpt>
            <trkpt lon="101.034984" lat="14.467480">
                <ele>40.993408</ele>
                <time>2010-05-23T03:10:44Z</time>
            </trkpt>
            <trkpt lon="101.034815" lat="14.467863">
                <ele>40.512817</ele>
                <time>2010-05-23T03:10:50Z</time>
            </trkpt>
            <trkpt lon="101.034862" lat="14.468351">
                <ele>40.512817</ele>
                <time>2010-05-23T03:10:57Z</time>
            </trkpt>
            <trkpt lon="101.035366" lat="14.469638">
                <ele>39.070679</ele>
                <time>2010-05-23T03:11:17Z</time>
            </trkpt>
            <trkpt lon="101.036492" lat="14.469834">
                <ele>37.148071</ele>
                <time>2010-05-23T03:28:46Z</time>
            </trkpt>
            <trkpt lon="101.036883" lat="14.469759">
                <ele>36.186768</ele>
                <time>2010-05-23T03:28:58Z</time>
            </trkpt>
            <trkpt lon="101.037232" lat="14.469994">
                <ele>37.148071</ele>
                <time>2010-05-23T03:29:12Z</time>
            </trkpt>
            <trkpt lon="101.037378" lat="14.470226">
                <ele>38.109375</ele>
                <time>2010-05-23T03:29:22Z</time>
            </trkpt>
            <trkpt lon="101.037803" lat="14.470684">
                <ele>37.628662</ele>
                <time>2010-05-23T03:29:38Z</time>
            </trkpt>
            <trkpt lon="101.038485" lat="14.470810">
                <ele>39.551269</ele>
                <time>2010-05-23T03:29:59Z</time>
            </trkpt>
            <trkpt lon="101.038580" lat="14.471090">
                <ele>40.993408</ele>
                <time>2010-05-23T03:30:11Z</time>
            </trkpt>
            <trkpt lon="101.038508" lat="14.472482">
                <ele>37.148071</ele>
                <time>2010-05-23T03:30:43Z</time>
            </trkpt>
            <trkpt lon="101.039061" lat="14.473774">
                <ele>37.628662</ele>
                <time>2010-05-23T03:31:10Z</time>
            </trkpt>
            <trkpt lon="101.040519" lat="14.473314">
                <ele>39.070679</ele>
                <time>2010-05-23T03:31:51Z</time>
            </trkpt>
            <trkpt lon="101.042134" lat="14.473292">
                <ele>40.032105</ele>
                <time>2010-05-23T03:32:27Z</time>
            </trkpt>
            <trkpt lon="101.043322" lat="14.473145">
                <ele>39.551269</ele>
                <time>2010-05-23T03:32:52Z</time>
            </trkpt>
            <trkpt lon="101.046627" lat="14.471830">
                <ele>42.916016</ele>
                <time>2010-05-23T03:34:07Z</time>
            </trkpt>
            <trkpt lon="101.048357" lat="14.471199">
                <ele>43.396606</ele>
                <time>2010-05-23T03:34:46Z</time>
            </trkpt>
            <trkpt lon="101.048555" lat="14.471312">
                <ele>43.396606</ele>
                <time>2010-05-23T03:34:53Z</time>
            </trkpt>
            <trkpt lon="101.048789" lat="14.472388">
                <ele>40.512817</ele>
                <time>2010-05-23T03:35:37Z</time>
            </trkpt>
            <trkpt lon="101.049251" lat="14.472273">
                <ele>40.993408</ele>
                <time>2010-05-23T03:36:04Z</time>
            </trkpt>
            <trkpt lon="101.048819" lat="14.472841">
                <ele>41.473999</ele>
                <time>2010-05-23T03:38:55Z</time>
            </trkpt>
            <trkpt lon="101.049242" lat="14.473985">
                <ele>40.512817</ele>
                <time>2010-05-23T03:39:44Z</time>
            </trkpt>
            <trkpt lon="101.049427" lat="14.475212">
                <ele>38.590088</ele>
                <time>2010-05-23T03:40:46Z</time>
            </trkpt>
            <trkpt lon="101.049972" lat="14.476858">
                <ele>38.109375</ele>
                <time>2010-05-23T03:41:42Z</time>
            </trkpt>
            <trkpt lon="101.049910" lat="14.477821">
                <ele>40.512817</ele>
                <time>2010-05-23T03:42:17Z</time>
            </trkpt>
            <trkpt lon="101.049712" lat="14.478265">
                <ele>40.512817</ele>
                <time>2010-05-23T03:42:32Z</time>
            </trkpt>
            <trkpt lon="101.049427" lat="14.478777">
                <ele>38.590088</ele>
                <time>2010-05-23T03:42:48Z</time>
            </trkpt>
            <trkpt lon="101.049725" lat="14.479006">
                <ele>38.590088</ele>
                <time>2010-05-23T03:43:03Z</time>
            </trkpt>
            <trkpt lon="101.049749" lat="14.479195">
                <ele>38.590088</ele>
                <time>2010-05-23T03:43:08Z</time>
            </trkpt>
            <trkpt lon="101.048760" lat="14.480365">
                <ele>37.628662</ele>
                <time>2010-05-23T03:43:47Z</time>
            </trkpt>
            <trkpt lon="101.048921" lat="14.480631">
                <ele>35.706055</ele>
                <time>2010-05-23T03:43:58Z</time>
            </trkpt>
            <trkpt lon="101.049102" lat="14.480701">
                <ele>35.225464</ele>
                <time>2010-05-23T03:44:04Z</time>
            </trkpt>
            <trkpt lon="101.049407" lat="14.481413">
                <ele>35.706055</ele>
                <time>2010-05-23T03:44:26Z</time>
            </trkpt>
            <trkpt lon="101.049687" lat="14.482706">
                <ele>35.706055</ele>
                <time>2010-05-23T03:45:06Z</time>
            </trkpt>
            <trkpt lon="101.050065" lat="14.483526">
                <ele>39.551269</ele>
                <time>2010-05-23T03:45:58Z</time>
            </trkpt>
            <trkpt lon="101.050331" lat="14.483707">
                <ele>39.070679</ele>
                <time>2010-05-23T03:46:10Z</time>
            </trkpt>
            <trkpt lon="101.050479" lat="14.484855">
                <ele>40.512817</ele>
                <time>2010-05-23T03:46:45Z</time>
            </trkpt>
            <trkpt lon="101.051213" lat="14.485952">
                <ele>43.877319</ele>
                <time>2010-05-23T03:47:30Z</time>
            </trkpt>
            <trkpt lon="101.051349" lat="14.485715">
                <ele>45.319214</ele>
                <time>2010-05-23T03:47:44Z</time>
            </trkpt>
            <trkpt lon="101.052216" lat="14.485474">
                <ele>49.164551</ele>
                <time>2010-05-23T03:48:17Z</time>
            </trkpt>
            <trkpt lon="101.052685" lat="14.485385">
                <ele>49.645264</ele>
                <time>2010-05-23T03:48:34Z</time>
            </trkpt>
            <trkpt lon="101.053349" lat="14.485646">
                <ele>50.125977</ele>
                <time>2010-05-23T03:49:00Z</time>
            </trkpt>
            <trkpt lon="101.053904" lat="14.485639">
                <ele>50.125977</ele>
                <time>2010-05-23T03:49:15Z</time>
            </trkpt>
            <trkpt lon="101.055095" lat="14.485315">
                <ele>51.567871</ele>
                <time>2010-05-23T03:49:49Z</time>
            </trkpt>
            <trkpt lon="101.055569" lat="14.485112">
                <ele>50.125977</ele>
                <time>2010-05-23T03:50:03Z</time>
            </trkpt>
            <trkpt lon="101.055973" lat="14.485331">
                <ele>50.606567</ele>
                <time>2010-05-23T03:50:16Z</time>
            </trkpt>
            <trkpt lon="101.056326" lat="14.485277">
                <ele>50.125977</ele>
                <time>2010-05-23T03:50:27Z</time>
            </trkpt>
            <trkpt lon="101.056930" lat="14.486895">
                <ele>49.164551</ele>
                <time>2010-05-23T03:51:22Z</time>
            </trkpt>
            <trkpt lon="101.057075" lat="14.486880">
                <ele>49.645264</ele>
                <time>2010-05-23T03:51:27Z</time>
            </trkpt>
            <trkpt lon="101.057193" lat="14.486966">
                <ele>48.683960</ele>
                <time>2010-05-23T03:51:33Z</time>
            </trkpt>
            <trkpt lon="101.057104" lat="14.487177">
                <ele>50.125977</ele>
                <time>2010-05-23T03:51:42Z</time>
            </trkpt>
            <trkpt lon="101.056879" lat="14.487244">
                <ele>49.164551</ele>
                <time>2010-05-23T03:51:49Z</time>
            </trkpt>
            <trkpt lon="101.056309" lat="14.487342">
                <ele>47.241821</ele>
                <time>2010-05-23T03:52:06Z</time>
            </trkpt>
            <trkpt lon="101.056125" lat="14.487219">
                <ele>46.761231</ele>
                <time>2010-05-23T03:52:14Z</time>
            </trkpt>
            <trkpt lon="101.055406" lat="14.487440">
                <ele>46.761231</ele>
                <time>2010-05-23T03:52:34Z</time>
            </trkpt>
            <trkpt lon="101.054734" lat="14.488100">
                <ele>42.435425</ele>
                <time>2010-05-23T03:52:52Z</time>
            </trkpt>
            <trkpt lon="101.054197" lat="14.488314">
                <ele>42.916016</ele>
                <time>2010-05-23T03:53:04Z</time>
            </trkpt>
            <trkpt lon="101.054124" lat="14.488504">
                <ele>42.435425</ele>
                <time>2010-05-23T03:53:10Z</time>
            </trkpt>
            <trkpt lon="101.054322" lat="14.489122">
                <ele>44.358032</ele>
                <time>2010-05-23T03:53:27Z</time>
            </trkpt>
            <trkpt lon="101.053803" lat="14.489662">
                <ele>42.435425</ele>
                <time>2010-05-23T03:53:46Z</time>
            </trkpt>
            <trkpt lon="101.053967" lat="14.489791">
                <ele>44.358032</ele>
                <time>2010-05-23T03:53:57Z</time>
            </trkpt>
            <trkpt lon="101.054621" lat="14.491811">
                <ele>53.971191</ele>
                <time>2010-05-23T03:55:23Z</time>
            </trkpt>
            <trkpt lon="101.054856" lat="14.491979">
                <ele>55.413086</ele>
                <time>2010-05-23T03:55:38Z</time>
            </trkpt>
            <trkpt lon="101.055249" lat="14.491881">
                <ele>55.413086</ele>
                <time>2010-05-23T03:55:55Z</time>
            </trkpt>
            <trkpt lon="101.055351" lat="14.491393">
                <ele>54.932373</ele>
                <time>2010-05-23T03:56:14Z</time>
            </trkpt>
            <trkpt lon="101.055652" lat="14.491121">
                <ele>54.932373</ele>
                <time>2010-05-23T03:56:28Z</time>
            </trkpt>
            <trkpt lon="101.056292" lat="14.491344">
                <ele>60.219727</ele>
                <time>2010-05-23T03:57:12Z</time>
            </trkpt>
            <trkpt lon="101.057079" lat="14.491183">
                <ele>60.700317</ele>
                <time>2010-05-23T03:57:41Z</time>
            </trkpt>
            <trkpt lon="101.057172" lat="14.490061">
                <ele>58.297119</ele>
                <time>2010-05-23T03:58:18Z</time>
            </trkpt>
            <trkpt lon="101.057214" lat="14.489637">
                <ele>54.451782</ele>
                <time>2010-05-23T03:58:41Z</time>
            </trkpt>
            <trkpt lon="101.057204" lat="14.490203">
                <ele>55.413086</ele>
                <time>2010-05-23T03:59:09Z</time>
            </trkpt>
            <trkpt lon="101.057761" lat="14.490295">
                <ele>57.335815</ele>
                <time>2010-05-23T03:59:34Z</time>
            </trkpt>
            <trkpt lon="101.058056" lat="14.490513">
                <ele>59.739136</ele>
                <time>2010-05-23T04:00:02Z</time>
            </trkpt>
            <trkpt lon="101.058556" lat="14.490627">
                <ele>59.258423</ele>
                <time>2010-05-23T04:00:30Z</time>
            </trkpt>
            <trkpt lon="101.058699" lat="14.490546">
                <ele>63.103638</ele>
                <time>2010-05-23T04:01:24Z</time>
            </trkpt>
            <trkpt lon="101.058914" lat="14.490520">
                <ele>64.065063</ele>
                <time>2010-05-23T04:01:47Z</time>
            </trkpt>
            <trkpt lon="101.059703" lat="14.490128">
                <ele>72.236206</ele>
                <time>2010-05-23T04:03:02Z</time>
            </trkpt>
            <trkpt lon="101.061079" lat="14.489353">
                <ele>68.390869</ele>
                <time>2010-05-23T04:03:58Z</time>
            </trkpt>
            <trkpt lon="101.063299" lat="14.489792">
                <ele>76.562134</ele>
                <time>2010-05-23T04:05:17Z</time>
            </trkpt>
            <trkpt lon="101.066145" lat="14.490377">
                <ele>82.810791</ele>
                <time>2010-05-23T04:06:47Z</time>
            </trkpt>
            <trkpt lon="101.066228" lat="14.490384">
                <ele>82.330078</ele>
                <time>2010-05-23T04:06:50Z</time>
            </trkpt>
            <trkpt lon="101.066151" lat="14.488417">
                <ele>72.236206</ele>
                <time>2010-05-23T04:07:31Z</time>
            </trkpt>
            <trkpt lon="101.066932" lat="14.488639">
                <ele>71.274902</ele>
                <time>2010-05-23T04:07:56Z</time>
            </trkpt>
            <trkpt lon="101.071104" lat="14.490442">
                <ele>76.562134</ele>
                <time>2010-05-23T04:10:10Z</time>
            </trkpt>
            <trkpt lon="101.070946" lat="14.488952">
                <ele>70.794190</ele>
                <time>2010-05-23T04:10:47Z</time>
            </trkpt>
            <trkpt lon="101.071082" lat="14.488401">
                <ele>69.832886</ele>
                <time>2010-05-23T04:11:00Z</time>
            </trkpt>
            <trkpt lon="101.072701" lat="14.487903">
                <ele>73.197632</ele>
                <time>2010-05-23T04:11:54Z</time>
            </trkpt>
            <trkpt lon="101.073838" lat="14.486031">
                <ele>82.810791</ele>
                <time>2010-05-23T04:13:30Z</time>
            </trkpt>
            <trkpt lon="101.073735" lat="14.485781">
                <ele>82.810791</ele>
                <time>2010-05-23T04:13:43Z</time>
            </trkpt>
            <trkpt lon="101.072390" lat="14.484534">
                <ele>86.656006</ele>
                <time>2010-05-23T04:14:45Z</time>
            </trkpt>
            <trkpt lon="101.072453" lat="14.484381">
                <ele>91.462524</ele>
                <time>2010-05-23T04:16:40Z</time>
            </trkpt>
            <trkpt lon="101.072691" lat="14.484707">
                <ele>87.136597</ele>
                <time>2010-05-23T04:20:52Z</time>
            </trkpt>
            <trkpt lon="101.073017" lat="14.484993">
                <ele>88.578735</ele>
                <time>2010-05-23T04:21:07Z</time>
            </trkpt>
            <trkpt lon="101.073473" lat="14.485397">
                <ele>86.656006</ele>
                <time>2010-05-23T04:21:24Z</time>
            </trkpt>
            <trkpt lon="101.074617" lat="14.486380">
                <ele>85.213989</ele>
                <time>2010-05-23T04:22:00Z</time>
            </trkpt>
            <trkpt lon="101.075270" lat="14.486790">
                <ele>86.656006</ele>
                <time>2010-05-23T04:22:20Z</time>
            </trkpt>
            <trkpt lon="101.076053" lat="14.486914">
                <ele>86.656006</ele>
                <time>2010-05-23T04:22:39Z</time>
            </trkpt>
            <trkpt lon="101.080388" lat="14.485360">
                <ele>87.136597</ele>
                <time>2010-05-23T04:24:17Z</time>
            </trkpt>
            <trkpt lon="101.081151" lat="14.485011">
                <ele>86.175293</ele>
                <time>2010-05-23T04:24:36Z</time>
            </trkpt>
            <trkpt lon="101.083208" lat="14.483214">
                <ele>92.904541</ele>
                <time>2010-05-23T04:26:05Z</time>
            </trkpt>
            <trkpt lon="101.083811" lat="14.482848">
                <ele>94.827148</ele>
                <time>2010-05-23T04:26:27Z</time>
            </trkpt>
            <trkpt lon="101.084824" lat="14.482516">
                <ele>99.633789</ele>
                <time>2010-05-23T04:27:04Z</time>
            </trkpt>
            <trkpt lon="101.085456" lat="14.482335">
                <ele>100.595093</ele>
                <time>2010-05-23T04:27:23Z</time>
            </trkpt>
            <trkpt lon="101.087221" lat="14.481548">
                <ele>97.230469</ele>
                <time>2010-05-23T04:27:59Z</time>
            </trkpt>
            <trkpt lon="101.088501" lat="14.481162">
                <ele>96.749878</ele>
                <time>2010-05-23T04:28:22Z</time>
            </trkpt>
            <trkpt lon="101.091813" lat="14.480816">
                <ele>90.020630</ele>
                <time>2010-05-23T04:29:19Z</time>
            </trkpt>
            <trkpt lon="101.092979" lat="14.480279">
                <ele>88.098022</ele>
                <time>2010-05-23T04:29:47Z</time>
            </trkpt>
            <trkpt lon="101.092811" lat="14.478974">
                <ele>77.042847</ele>
                <time>2010-05-23T04:30:09Z</time>
            </trkpt>
            <trkpt lon="101.093049" lat="14.477634">
                <ele>73.678223</ele>
                <time>2010-05-23T04:30:39Z</time>
            </trkpt>
            <trkpt lon="101.093088" lat="14.477403">
                <ele>72.236206</ele>
                <time>2010-05-23T04:30:45Z</time>
            </trkpt>
            <trkpt lon="101.092379" lat="14.475560">
                <ele>70.794190</ele>
                <time>2010-05-23T04:31:46Z</time>
            </trkpt>
            <trkpt lon="101.092123" lat="14.475257">
                <ele>67.910278</ele>
                <time>2010-05-23T04:32:01Z</time>
            </trkpt>
            <trkpt lon="101.091841" lat="14.475208">
                <ele>72.236206</ele>
                <time>2010-05-23T04:33:01Z</time>
            </trkpt>
            <trkpt lon="101.091504" lat="14.475356">
                <ele>75.120239</ele>
                <time>2010-05-23T04:33:35Z</time>
            </trkpt>
            <trkpt lon="101.090566" lat="14.475478">
                <ele>79.446045</ele>
                <time>2010-05-23T04:34:39Z</time>
            </trkpt>
            <trkpt lon="101.089793" lat="14.475886">
                <ele>77.042847</ele>
                <time>2010-05-23T04:35:22Z</time>
            </trkpt>
            <trkpt lon="101.088377" lat="14.474815">
                <ele>73.197632</ele>
                <time>2010-05-23T04:36:16Z</time>
            </trkpt>
            <trkpt lon="101.087961" lat="14.474362">
                <ele>72.716919</ele>
                <time>2010-05-23T04:36:35Z</time>
            </trkpt>
            <trkpt lon="101.087147" lat="14.473579">
                <ele>70.313477</ele>
                <time>2010-05-23T04:37:05Z</time>
            </trkpt>
            <trkpt lon="101.086364" lat="14.474123">
                <ele>66.468262</ele>
                <time>2010-05-23T04:37:26Z</time>
            </trkpt>
            <trkpt lon="101.085957" lat="14.474041">
                <ele>66.468262</ele>
                <time>2010-05-23T04:37:39Z</time>
            </trkpt>
            <trkpt lon="101.085685" lat="14.474243">
                <ele>67.910278</ele>
                <time>2010-05-23T04:37:56Z</time>
            </trkpt>
            <trkpt lon="101.085058" lat="14.473658">
                <ele>66.948975</ele>
                <time>2010-05-23T04:38:22Z</time>
            </trkpt>
            <trkpt lon="101.084788" lat="14.473537">
                <ele>65.987671</ele>
                <time>2010-05-23T04:38:29Z</time>
            </trkpt>
            <trkpt lon="101.084351" lat="14.473874">
                <ele>65.507080</ele>
                <time>2010-05-23T04:38:45Z</time>
            </trkpt>
            <trkpt lon="101.083917" lat="14.473815">
                <ele>65.987671</ele>
                <time>2010-05-23T04:38:54Z</time>
            </trkpt>
            <trkpt lon="101.083473" lat="14.473973">
                <ele>65.987671</ele>
                <time>2010-05-23T04:39:05Z</time>
            </trkpt>
            <trkpt lon="101.083289" lat="14.474260">
                <ele>63.584351</ele>
                <time>2010-05-23T04:39:13Z</time>
            </trkpt>
            <trkpt lon="101.083038" lat="14.474380">
                <ele>63.584351</ele>
                <time>2010-05-23T04:39:20Z</time>
            </trkpt>
            <trkpt lon="101.082406" lat="14.474250">
                <ele>64.545654</ele>
                <time>2010-05-23T04:39:37Z</time>
            </trkpt>
            <trkpt lon="101.082121" lat="14.474080">
                <ele>66.468262</ele>
                <time>2010-05-23T04:39:45Z</time>
            </trkpt>
            <trkpt lon="101.081697" lat="14.471982">
                <ele>65.507080</ele>
                <time>2010-05-23T04:40:41Z</time>
            </trkpt>
            <trkpt lon="101.081604" lat="14.470923">
                <ele>62.142334</ele>
                <time>2010-05-23T04:41:09Z</time>
            </trkpt>
            <trkpt lon="101.081459" lat="14.470676">
                <ele>64.545654</ele>
                <time>2010-05-23T04:41:25Z</time>
            </trkpt>
            <trkpt lon="101.081138" lat="14.470552">
                <ele>72.716919</ele>
                <time>2010-05-23T04:42:23Z</time>
            </trkpt>
            <trkpt lon="101.080499" lat="14.470276">
                <ele>71.755493</ele>
                <time>2010-05-23T04:42:44Z</time>
            </trkpt>
            <trkpt lon="101.079822" lat="14.470602">
                <ele>68.871582</ele>
                <time>2010-05-23T04:43:06Z</time>
            </trkpt>
            <trkpt lon="101.078090" lat="14.468050">
                <ele>59.739136</ele>
                <time>2010-05-23T04:44:28Z</time>
            </trkpt>
            <trkpt lon="101.078626" lat="14.467819">
                <ele>63.103638</ele>
                <time>2010-05-23T04:44:53Z</time>
            </trkpt>
            <trkpt lon="101.080536" lat="14.466438">
                <ele>60.219727</ele>
                <time>2010-05-23T04:45:45Z</time>
            </trkpt>
            <trkpt lon="101.082109" lat="14.465518">
                <ele>62.622925</ele>
                <time>2010-05-23T04:46:26Z</time>
            </trkpt>
            <trkpt lon="101.083045" lat="14.463765">
                <ele>63.103638</ele>
                <time>2010-05-23T04:47:15Z</time>
            </trkpt>
            <trkpt lon="101.083676" lat="14.463024">
                <ele>63.584351</ele>
                <time>2010-05-23T04:47:38Z</time>
            </trkpt>
            <trkpt lon="101.087183" lat="14.460821">
                <ele>67.910278</ele>
                <time>2010-05-23T04:49:14Z</time>
            </trkpt>
            <trkpt lon="101.087861" lat="14.460522">
                <ele>68.871582</ele>
                <time>2010-05-23T04:49:34Z</time>
            </trkpt>
            <trkpt lon="101.088709" lat="14.460459">
                <ele>70.794190</ele>
                <time>2010-05-23T04:49:55Z</time>
            </trkpt>
            <trkpt lon="101.089148" lat="14.460213">
                <ele>73.197632</ele>
                <time>2010-05-23T04:50:09Z</time>
            </trkpt>
            <trkpt lon="101.091625" lat="14.456758">
                <ele>74.639526</ele>
                <time>2010-05-23T04:51:59Z</time>
            </trkpt>
            <trkpt lon="101.093010" lat="14.455212">
                <ele>79.446045</ele>
                <time>2010-05-23T04:52:53Z</time>
            </trkpt>
            <trkpt lon="101.093698" lat="14.454117">
                <ele>80.407471</ele>
                <time>2010-05-23T04:53:23Z</time>
            </trkpt>
            <trkpt lon="101.093559" lat="14.453994">
                <ele>78.484741</ele>
                <time>2010-05-23T04:53:27Z</time>
            </trkpt>
            <trkpt lon="101.091078" lat="14.453229">
                <ele>78.965454</ele>
                <time>2010-05-23T04:54:31Z</time>
            </trkpt>
            <trkpt lon="101.089335" lat="14.453335">
                <ele>87.617188</ele>
                <time>2010-05-23T04:55:45Z</time>
            </trkpt>
            <trkpt lon="101.088604" lat="14.453142">
                <ele>85.213989</ele>
                <time>2010-05-23T04:56:04Z</time>
            </trkpt>
            <trkpt lon="101.087149" lat="14.453134">
                <ele>73.678223</ele>
                <time>2010-05-23T04:56:23Z</time>
            </trkpt>
            <trkpt lon="101.085729" lat="14.452501">
                <ele>70.313477</ele>
                <time>2010-05-23T04:56:47Z</time>
            </trkpt>
            <trkpt lon="101.083105" lat="14.452353">
                <ele>66.468262</ele>
                <time>2010-05-23T04:57:43Z</time>
            </trkpt>
            <trkpt lon="101.082210" lat="14.452144">
                <ele>66.468262</ele>
                <time>2010-05-23T04:58:05Z</time>
            </trkpt>
            <trkpt lon="101.082053" lat="14.452070">
                <ele>65.026367</ele>
                <time>2010-05-23T04:58:16Z</time>
            </trkpt>
            <trkpt lon="101.082403" lat="14.453239">
                <ele>56.374512</ele>
                <time>2010-05-23T04:59:05Z</time>
            </trkpt>
            <trkpt lon="101.082272" lat="14.453576">
                <ele>55.413086</ele>
                <time>2010-05-23T04:59:19Z</time>
            </trkpt>
            <trkpt lon="101.081963" lat="14.453679">
                <ele>54.451782</ele>
                <time>2010-05-23T04:59:30Z</time>
            </trkpt>
            <trkpt lon="101.082134" lat="14.454005">
                <ele>55.413086</ele>
                <time>2010-05-23T04:59:42Z</time>
            </trkpt>
            <trkpt lon="101.081904" lat="14.454068">
                <ele>57.335815</ele>
                <time>2010-05-23T04:59:53Z</time>
            </trkpt>
            <trkpt lon="101.081496" lat="14.454446">
                <ele>56.855103</ele>
                <time>2010-05-23T05:00:07Z</time>
            </trkpt>
            <trkpt lon="101.080166" lat="14.454753">
                <ele>57.335815</ele>
                <time>2010-05-23T05:00:46Z</time>
            </trkpt>
            <trkpt lon="101.078885" lat="14.456184">
                <ele>59.739136</ele>
                <time>2010-05-23T05:01:43Z</time>
            </trkpt>
            <trkpt lon="101.078601" lat="14.456157">
                <ele>58.297119</ele>
                <time>2010-05-23T05:01:54Z</time>
            </trkpt>
            <trkpt lon="101.077637" lat="14.457130">
                <ele>65.507080</ele>
                <time>2010-05-23T05:03:28Z</time>
            </trkpt>
            <trkpt lon="101.078082" lat="14.456709">
                <ele>60.219727</ele>
                <time>2010-05-23T05:04:01Z</time>
            </trkpt>
            <trkpt lon="101.077544" lat="14.457271">
                <ele>61.181030</ele>
                <time>2010-05-23T05:04:29Z</time>
            </trkpt>
            <trkpt lon="101.076531" lat="14.456278">
                <ele>51.087158</ele>
                <time>2010-05-23T05:04:59Z</time>
            </trkpt>
            <trkpt lon="101.076158" lat="14.456358">
                <ele>50.125977</ele>
                <time>2010-05-23T05:05:10Z</time>
            </trkpt>
            <trkpt lon="101.075667" lat="14.456747">
                <ele>50.606567</ele>
                <time>2010-05-23T05:05:25Z</time>
            </trkpt>
            <trkpt lon="101.075248" lat="14.456434">
                <ele>50.125977</ele>
                <time>2010-05-23T05:05:39Z</time>
            </trkpt>
            <trkpt lon="101.074588" lat="14.455873">
                <ele>50.125977</ele>
                <time>2010-05-23T05:05:58Z</time>
            </trkpt>
            <trkpt lon="101.074493" lat="14.455713">
                <ele>45.319214</ele>
                <time>2010-05-23T05:06:02Z</time>
            </trkpt>
            <trkpt lon="101.074082" lat="14.455387">
                <ele>45.799927</ele>
                <time>2010-05-23T05:06:16Z</time>
            </trkpt>
            <trkpt lon="101.073890" lat="14.455059">
                <ele>53.009766</ele>
                <time>2010-05-23T05:06:40Z</time>
            </trkpt>
            <trkpt lon="101.073725" lat="14.454863">
                <ele>53.009766</ele>
                <time>2010-05-23T05:06:48Z</time>
            </trkpt>
            <trkpt lon="101.074099" lat="14.454604">
                <ele>52.048584</ele>
                <time>2010-05-23T05:07:04Z</time>
            </trkpt>
            <trkpt lon="101.073731" lat="14.454223">
                <ele>53.490479</ele>
                <time>2010-05-23T05:07:23Z</time>
            </trkpt>
            <trkpt lon="101.073150" lat="14.452719">
                <ele>49.645264</ele>
                <time>2010-05-23T05:08:13Z</time>
            </trkpt>
            <trkpt lon="101.072586" lat="14.453568">
                <ele>51.087158</ele>
                <time>2010-05-23T05:08:42Z</time>
            </trkpt>
            <trkpt lon="101.071972" lat="14.454710">
                <ele>50.125977</ele>
                <time>2010-05-23T05:09:10Z</time>
            </trkpt>
            <trkpt lon="101.070472" lat="14.455936">
                <ele>50.125977</ele>
                <time>2010-05-23T05:09:57Z</time>
            </trkpt>
            <trkpt lon="101.070296" lat="14.456058">
                <ele>49.164551</ele>
                <time>2010-05-23T05:10:12Z</time>
            </trkpt>
            <trkpt lon="101.069877" lat="14.455983">
                <ele>48.203369</ele>
                <time>2010-05-23T05:12:02Z</time>
            </trkpt>
            <trkpt lon="101.070229" lat="14.456050">
                <ele>48.203369</ele>
                <time>2010-05-23T05:12:22Z</time>
            </trkpt>
            <trkpt lon="101.068680" lat="14.457271">
                <ele>48.203369</ele>
                <time>2010-05-23T05:13:20Z</time>
            </trkpt>
            <trkpt lon="101.068741" lat="14.457448">
                <ele>48.203369</ele>
                <time>2010-05-23T05:13:25Z</time>
            </trkpt>
            <trkpt lon="101.068030" lat="14.457999">
                <ele>47.241821</ele>
                <time>2010-05-23T05:13:48Z</time>
            </trkpt>
            <trkpt lon="101.067648" lat="14.458228">
                <ele>48.683960</ele>
                <time>2010-05-23T05:13:59Z</time>
            </trkpt>
            <trkpt lon="101.067481" lat="14.458045">
                <ele>48.683960</ele>
                <time>2010-05-23T05:14:05Z</time>
            </trkpt>
            <trkpt lon="101.066610" lat="14.457987">
                <ele>47.241821</ele>
                <time>2010-05-23T05:14:25Z</time>
            </trkpt>
            <trkpt lon="101.064610" lat="14.458263">
                <ele>53.971191</ele>
                <time>2010-05-23T05:18:43Z</time>
            </trkpt>
            <trkpt lon="101.064171" lat="14.459116">
                <ele>43.877319</ele>
                <time>2010-05-23T05:19:05Z</time>
            </trkpt>
            <trkpt lon="101.063981" lat="14.459099">
                <ele>44.838623</ele>
                <time>2010-05-23T05:19:13Z</time>
            </trkpt>
            <trkpt lon="101.063576" lat="14.457964">
                <ele>47.722534</ele>
                <time>2010-05-23T05:19:56Z</time>
            </trkpt>
            <trkpt lon="101.063288" lat="14.457191">
                <ele>46.761231</ele>
                <time>2010-05-23T05:20:16Z</time>
            </trkpt>
            <trkpt lon="101.063039" lat="14.456415">
                <ele>46.761231</ele>
                <time>2010-05-23T05:20:35Z</time>
            </trkpt>
            <trkpt lon="101.062326" lat="14.453648">
                <ele>47.241821</ele>
                <time>2010-05-23T05:21:41Z</time>
            </trkpt>
            <trkpt lon="101.062021" lat="14.453581">
                <ele>47.241821</ele>
                <time>2010-05-23T05:21:44Z</time>
            </trkpt>
            <trkpt lon="101.061706" lat="14.452348">
                <ele>49.645264</ele>
                <time>2010-05-23T05:22:15Z</time>
            </trkpt>
            <trkpt lon="101.059720" lat="14.447598">
                <ele>53.009766</ele>
                <time>2010-05-23T05:24:22Z</time>
            </trkpt>
            <trkpt lon="101.059414" lat="14.447505">
                <ele>53.971191</ele>
                <time>2010-05-23T05:24:31Z</time>
            </trkpt>
            <trkpt lon="101.058414" lat="14.447749">
                <ele>55.413086</ele>
                <time>2010-05-23T05:24:56Z</time>
            </trkpt>
            <trkpt lon="101.057423" lat="14.447964">
                <ele>54.451782</ele>
                <time>2010-05-23T05:25:21Z</time>
            </trkpt>
            <trkpt lon="101.056761" lat="14.446722">
                <ele>55.893799</ele>
                <time>2010-05-23T05:26:00Z</time>
            </trkpt>
            <trkpt lon="101.055746" lat="14.446560">
                <ele>56.855103</ele>
                <time>2010-05-23T05:26:25Z</time>
            </trkpt>
            <trkpt lon="101.055549" lat="14.446609">
                <ele>56.374512</ele>
                <time>2010-05-23T05:26:30Z</time>
            </trkpt>
            <trkpt lon="101.054818" lat="14.445806">
                <ele>57.816528</ele>
                <time>2010-05-23T05:26:58Z</time>
            </trkpt>
            <trkpt lon="101.054727" lat="14.445884">
                <ele>59.739136</ele>
                <time>2010-05-23T05:28:39Z</time>
            </trkpt>
            <trkpt lon="101.054637" lat="14.445610">
                <ele>57.335815</ele>
                <time>2010-05-23T05:28:54Z</time>
            </trkpt>
            <trkpt lon="101.055309" lat="14.444824">
                <ele>57.816528</ele>
                <time>2010-05-23T05:29:24Z</time>
            </trkpt>
            <trkpt lon="101.054941" lat="14.444408">
                <ele>57.335815</ele>
                <time>2010-05-23T05:29:40Z</time>
            </trkpt>
            <trkpt lon="101.054678" lat="14.443842">
                <ele>56.374512</ele>
                <time>2010-05-23T05:29:55Z</time>
            </trkpt>
            <trkpt lon="101.054570" lat="14.443637">
                <ele>54.932373</ele>
                <time>2010-05-23T05:30:02Z</time>
            </trkpt>
            <trkpt lon="101.053837" lat="14.443975">
                <ele>59.739136</ele>
                <time>2010-05-23T05:30:34Z</time>
            </trkpt>
        </trkseg>
    </trk>
</gpx>